Averill, Minnesota
Current Conditions -  °F | °C
As of 2:11 AM on Tuesday 27 Jan 2015 (Local Time) from KJKJ Reporting Station
Overcast Overcast  
Wind Chill: 28°   Ceiling: 300
Heat Index: 28°   Visibility: 10mi
Dew Point: 28°   Wind: 0mph
Humidity: 100%   Direction: NA
Pressure: 30.06"   Gusts: NA
Location:  46.8905°N, 96.5417°W
Report Text: KJKJ 270811Z AUTO 00000KT 10SM OVC003 M02/M02 A3006 RMK AO2
Loading
Personal Weather Stations






























Interactive Weather Map New forecast layout! Learn more

10-Day Weather Forecast

Advertisements
Track Severe Weather on mobile